Time;durP1;ratioP1;P1;durP2;ratioP2;P2;SDS_P1;SDS_P2;PMS_P1;PMS_P2;Temp;Humidity;BMP_temperature;BMP_pressure;BME280_temperature;BME280_humidity;BME280_pressure;Samples;Min_cycle;Max_cycle;Signal;HPM_P1;HPM_P2
2022/01/17 03:52:07;;;;;;;10.07;5.10;;;;;;;3.56;63.30;99774.84;4503945;27;20160;-96
2022/01/17 04:15:19;;;;;;;11.52;5.18;;;;;;;3.38;64.87;99777.81;4702265;27;20412;-96
2022/01/17 04:17:51;;;;;;;11.88;5.22;;;;;;;3.78;63.78;99781.38;4302203;33;34135;-95
2022/01/17 04:27:31;;;;;;;12.27;5.87;;;;;;;4.25;62.19;99791.88;4293807;33;32721;-96
2022/01/17 04:30:05;;;;;;;12.43;5.40;;;;;;;3.86;63.07;99790.16;4286820;33;32522;-96
2022/01/17 04:32:34;;;;;;;10.55;5.68;;;;;;;4.15;62.67;99788.25;4301180;33;34050;-96
2022/01/17 04:35:03;;;;;;;10.70;5.22;;;;;;;3.67;63.65;99800.84;4324962;27;34724;-96
2022/01/17 04:37:31;;;;;;;13.20;6.55;;;;;;;3.78;63.89;99809.72;4312483;33;34343;-94
2022/01/17 04:39:59;;;;;;;11.05;5.53;;;;;;;4.17;63.03;99808.91;4314236;33;32594;-95
2022/01/17 04:42:30;;;;;;;11.43;6.32;;;;;;;4.17;62.52;99803.75;4314605;33;33199;-94
2022/01/17 04:45:07;;;;;;;12.05;5.50;;;;;;;4.46;61.29;99796.63;4302581;27;34050;-94
2022/01/17 04:47:36;;;;;;;13.85;6.43;;;;;;;4.47;61.19;99792.38;4294372;33;34152;-94
2022/01/17 04:50:09;;;;;;;11.35;5.15;;;;;;;4.26;62.16;99801.38;4292591;33;33361;-94
2022/01/17 04:52:42;;;;;;;13.13;5.60;;;;;;;3.73;64.01;99778.69;4305839;33;34304;-93
2022/01/17 04:55:39;;;;;;;16.70;5.68;;;;;;;3.96;63.17;99781.81;4309993;33;34769;-94
2022/01/17 04:58:08;;;;;;;9.52;4.85;;;;;;;3.74;64.00;99771.81;4293467;33;33638;-96
2022/01/17 05:00:39;;;;;;;10.73;4.80;;;;;;;3.85;63.71;99772.97;4280814;33;32417;-92
2022/01/17 05:03:14;;;;;;;10.25;4.82;;;;;;;3.92;63.65;99754.22;4307682;33;33847;-95
2022/01/17 05:05:58;;;;;;;9.32;5.15;;;;;;;3.86;64.09;99746.34;4316774;27;34096;-95
2022/01/17 05:08:34;;;;;;;10.98;5.20;;;;;;;3.74;64.11;99774.41;4296851;33;35263;-96
2022/01/17 05:11:02;;;;;;;15.85;5.85;;;;;;;4.17;63.22;99770.25;4271147;33;33660;-96
2022/01/17 05:13:34;;;;;;;11.50;5.75;;;;;;;4.31;62.25;99766.25;4309842;33;35025;-96
2022/01/17 05:16:13;;;;;;;12.00;5.30;;;;;;;4.32;62.49;99775.75;4272313;33;33876;-96
2022/01/17 05:22:41;;;;;;;8.75;4.60;;;;;;;4.36;61.81;99776.69;4298424;33;32573;-95
2022/01/17 05:25:23;;;;;;;8.93;4.95;;;;;;;4.67;60.68;99778.16;4289377;33;32821;-95
2022/01/17 05:28:11;;;;;;;12.65;5.25;;;;;;;4.49;61.35;99782.94;4308420;33;36271;-96
2022/01/17 05:30:39;;;;;;;10.27;5.35;;;;;;;4.26;62.50;99785.03;4286035;33;33419;-96
2022/01/17 05:33:34;;;;;;;11.05;5.35;;;;;;;4.59;61.69;99779.72;4289758;33;32948;-96
2022/01/17 05:36:02;;;;;;;12.48;5.47;;;;;;;3.97;63.70;99765.53;4283948;33;32644;-94
2022/01/17 05:38:30;;;;;;;11.38;5.68;;;;;;;3.70;64.73;99767.44;4272549;33;34785;-96
2022/01/17 05:41:24;;;;;;;16.17;5.72;;;;;;;3.38;65.96;99764.97;4283317;33;33409;-95
2022/01/17 05:43:53;;;;;;;13.18;5.03;;;;;;;3.67;64.70;99746.75;4280129;33;34053;-95
2022/01/17 05:46:22;;;;;;;12.68;5.57;;;;;;;3.88;64.06;99736.97;4292688;33;33763;-95
2022/01/17 05:48:53;;;;;;;9.80;4.53;;;;;;;3.48;65.40;99735.19;4282265;33;33938;-95
2022/01/17 05:51:30;;;;;;;10.30;4.80;;;;;;;3.80;64.43;99741.94;4282637;33;33406;-96
2022/01/17 05:54:41;;;;;;;7.97;4.32;;;;;;;3.68;64.57;99739.06;4288889;33;32533;-93
2022/01/17 05:57:10;;;;;;;10.55;5.55;;;;;;;4.26;62.88;99747.25;4284903;33;32641;-94
2022/01/17 05:59:39;;;;;;;15.73;5.60;;;;;;;3.48;64.92;99737.75;4295014;28;35510;-96
2022/01/17 06:02:08;;;;;;;10.18;5.40;;;;;;;4.22;62.61;99731.66;4271600;33;33378;-96
2022/01/17 06:04:59;;;;;;;8.10;4.15;;;;;;;4.06;63.26;99725.31;4311478;27;33418;-96
2022/01/17 06:07:27;;;;;;;9.43;5.70;;;;;;;4.12;62.71;99731.47;4305799;27;33738;-96
2022/01/17 06:09:57;;;;;;;9.05;4.85;;;;;;;3.78;63.77;99733.31;4280214;33;34175;-96
2022/01/17 06:12:26;;;;;;;13.60;5.85;;;;;;;3.75;64.13;99724.66;4272586;33;33125;-96
2022/01/17 06:14:57;;;;;;;10.13;4.95;;;;;;;3.74;63.82;99733.19;4286381;33;32835;-96
2022/01/17 06:17:33;;;;;;;10.00;3.67;;;;;;;4.16;62.67;99733.31;4296896;27;33188;-96
2022/01/17 06:20:06;;;;;;;9.10;4.65;;;;;;;4.09;63.03;99733.97;4288329;33;33884;-96
2022/01/17 06:22:35;;;;;;;10.30;5.57;;;;;;;3.92;63.27;99737.91;4302860;33;35159;-96
2022/01/17 06:25:05;;;;;;;9.80;4.80;;;;;;;4.13;63.03;99740.06;4300947;33;34556;-96
2022/01/17 06:27:55;;;;;;;11.12;5.45;;;;;;;3.83;64.13;99754.03;4289147;33;32381;-96
2022/01/17 06:30:23;;;;;;;11.45;4.20;;;;;;;3.97;63.26;99737.19;4296384;33;34080;-96
2022/01/17 06:32:53;;;;;;;10.13;4.32;;;;;;;3.85;63.80;99741.16;4298157;33;34533;-96
2022/01/17 06:35:21;;;;;;;11.65;4.70;;;;;;;4.29;62.54;99733.53;4299688;33;32433;-96
2022/01/17 06:37:51;;;;;;;9.15;4.30;;;;;;;3.90;63.71;99739.56;4298208;33;32964;-96
2022/01/17 06:40:20;;;;;;;8.50;3.90;;;;;;;4.12;63.05;99743.50;4288158;33;33483;-96
2022/01/17 06:42:52;;;;;;;8.88;4.85;;;;;;;3.82;63.69;99723.09;4293393;33;33679;-96
2022/01/17 06:46:05;;;;;;;9.75;3.80;;;;;;;3.88;63.52;99721.53;4355582;27;33802;-96
2022/01/17 06:49:39;;;;;;;8.82;4.25;;;;;;;3.55;64.27;99698.44;4411739;27;34399;-96
2022/01/17 06:53:06;;;;;;;9.35;4.87;;;;;;;3.78;63.90;99704.97;4667258;27;35197;31
2022/01/17 06:55:46;;;;;;;7.95;4.12;;;;;;;3.73;64.12;99723.75;4280287;33;34071;-96
2022/01/17 06:58:16;;;;;;;9.85;4.82;;;;;;;3.88;63.90;99739.56;4254839;33;32754;-96
2022/01/17 07:00:45;;;;;;;6.72;3.67;;;;;;;4.01;63.32;99732.97;4251512;33;33817;-94
2022/01/17 07:03:14;;;;;;;9.35;5.20;;;;;;;3.73;64.16;99711.72;4252233;33;34709;-95
2022/01/17 07:05:45;;;;;;;8.00;4.35;;;;;;;3.81;63.82;99719.63;4263235;33;34242;-93
2022/01/17 07:08:13;;;;;;;7.03;4.43;;;;;;;3.94;63.45;99716.50;4264110;33;33458;-95
2022/01/17 07:10:44;;;;;;;7.40;3.85;;;;;;;3.90;63.79;99709.53;4264965;33;33342;-96
2022/01/17 07:13:38;;;;;;;8.02;4.57;;;;;;;4.35;62.51;99701.03;4257298;33;33822;-95
2022/01/17 07:16:07;;;;;;;7.47;4.78;;;;;;;4.43;61.84;99690.88;4263586;33;34754;-95
2022/01/17 07:18:36;;;;;;;8.32;4.37;;;;;;;4.06;63.04;99699.53;4251673;33;33645;-95
2022/01/17 07:21:05;;;;;;;12.85;5.25;;;;;;;4.02;63.59;99701.19;4263503;33;32480;-96
2022/01/17 07:23:33;;;;;;;6.37;3.62;;;;;;;4.33;63.06;99705.28;4264368;33;34851;-96
2022/01/17 07:26:43;;;;;;;8.73;4.35;;;;;;;3.92;63.96;99709.56;4624706;28;20125;-96
2022/01/17 07:29:24;;;;;;;7.80;4.43;;;;;;;4.23;63.19;99702.50;4343220;27;33438;-96
2022/01/17 07:31:57;;;;;;;7.55;4.12;;;;;;;4.24;63.40;99735.16;4275703;33;33722;-93
2022/01/17 07:34:26;;;;;;;7.18;4.22;;;;;;;4.21;63.39;99735.97;4278426;33;35231;-95
2022/01/17 07:36:54;;;;;;;10.07;4.82;;;;;;;4.03;63.95;99756.19;4277550;33;35154;-96
2022/01/17 07:39:22;;;;;;;5.30;3.12;;;;;;;4.36;63.01;99762.06;4264329;33;33499;-95
2022/01/17 07:41:51;;;;;;;7.37;4.00;;;;;;;4.46;62.65;99770.00;4276404;33;34349;-96
2022/01/17 07:44:23;;;;;;;10.25;4.78;;;;;;;3.99;63.75;99786.16;4277700;33;34832;-96
2022/01/17 07:46:55;;;;;;;7.40;4.25;;;;;;;4.15;63.65;99815.75;4256793;33;33181;-96
2022/01/17 07:49:25;;;;;;;7.22;3.75;;;;;;;4.32;63.49;99826.41;4270380;33;33132;-96
2022/01/17 07:52:05;;;;;;;7.60;3.80;;;;;;;4.49;62.78;99813.91;4279213;33;33536;-96
2022/01/17 07:54:37;;;;;;;7.93;3.72;;;;;;;4.56;62.51;99782.25;4278479;33;34237;-96
2022/01/17 07:57:06;;;;;;;4.82;2.83;;;;;;;4.55;62.32;99762.44;4268596;33;34440;-96
2022/01/17 07:59:35;;;;;;;7.37;3.72;;;;;;;4.28;63.38;99731.81;4259045;33;32361;-96
2022/01/17 08:02:06;;;;;;;4.18;2.20;;;;;;;4.27;63.30;99735.22;4259370;33;32842;-94
2022/01/17 08:04:35;;;;;;;8.00;3.47;;;;;;;4.28;63.45;99747.28;4276191;33;33947;-96
2022/01/17 08:07:17;;;;;;;8.48;3.62;;;;;;;4.30;63.70;99755.91;4333271;28;35166;-96
2022/01/17 08:09:47;;;;;;;6.07;3.12;;;;;;;4.36;63.27;99749.19;4297708;28;33437;-96
2022/01/17 08:12:14;;;;;;;6.57;3.25;;;;;;;4.25;63.80;99745.47;4297457;33;33644;-93
2022/01/17 08:14:42;;;;;;;9.50;4.07;;;;;;;4.41;63.32;99712.28;4307086;33;35928;-92
2022/01/17 08:17:14;;;;;;;7.57;3.28;;;;;;;4.53;62.93;99707.38;4308299;33;34186;-96
2022/01/17 08:19:43;;;;;;;6.12;3.47;;;;;;;4.31;63.31;99691.50;4285179;33;33550;-96
2022/01/17 08:22:14;;;;;;;7.45;3.35;;;;;;;4.59;63.02;99692.03;4313456;33;33878;-94
2022/01/17 08:24:42;;;;;;;9.20;4.15;;;;;;;4.74;62.10;99676.81;4321116;33;35973;-95
2022/01/17 08:27:10;;;;;;;12.20;3.60;;;;;;;4.61;62.63;99668.88;4295405;33;35228;-95
2022/01/17 08:29:38;;;;;;;6.07;3.00;;;;;;;4.59;62.90;99676.56;4319058;33;33712;-96
2022/01/17 08:32:09;;;;;;;8.45;3.45;;;;;;;4.67;62.46;99666.37;4306811;33;33083;-95
2022/01/17 08:34:38;;;;;;;7.87;4.10;;;;;;;4.72;62.70;99664.75;4306177;33;35879;-96
2022/01/17 08:37:06;;;;;;;6.62;3.35;;;;;;;4.79;61.96;99684.66;4307198;33;34894;-95
2022/01/17 08:39:34;;;;;;;10.23;4.30;;;;;;;5.12;61.05;99668.91;4319161;33;34483;-96
2022/01/17 08:42:10;;;;;;;16.35;5.30;;;;;;;4.78;62.41;99684.62;4306485;33;33546;-95
2022/01/17 08:44:48;;;;;;;8.23;4.03;;;;;;;5.20;61.37;99692.25;4304341;33;34690;-95
2022/01/17 08:47:18;;;;;;;7.68;3.92;;;;;;;5.11;61.25;99713.59;4308047;33;35223;-94
2022/01/17 08:49:48;;;;;;;9.05;3.53;;;;;;;4.72;62.46;99714.62;4295926;33;32431;-96
2022/01/17 08:52:17;;;;;;;6.45;3.95;;;;;;;4.67;62.84;99730.88;4295432;33;33974;-96
2022/01/17 08:54:47;;;;;;;8.18;4.22;;;;;;;4.68;62.70;99727.47;4292267;33;34989;-96
2022/01/17 08:57:17;;;;;;;10.15;4.60;;;;;;;4.61;62.98;99731.63;4305472;33;35238;-94
2022/01/17 08:59:46;;;;;;;10.55;4.32;;;;;;;4.59;63.03;99710.09;4305536;33;34364;-94
2022/01/17 09:02:14;;;;;;;9.57;3.72;;;;;;;4.33;64.44;99710.44;4307325;33;33792;-94
2022/01/17 09:04:42;;;;;;;10.15;4.05;;;;;;;4.51;64.03;99675.53;4304262;33;34927;-93
2022/01/17 09:07:15;;;;;;;10.98;4.47;;;;;;;4.40;64.47;99677.06;4318613;33;34069;-94
2022/01/17 09:09:45;;;;;;;5.93;3.17;;;;;;;4.32;64.84;99708.72;4293508;33;32209;-96
2022/01/17 09:12:15;;;;;;;10.93;4.20;;;;;;;4.56;64.64;99682.53;4294895;33;33558;-94
2022/01/17 09:14:43;;;;;;;9.02;4.20;;;;;;;4.58;64.66;99692.88;4284325;33;34981;-95
2022/01/17 09:17:12;;;;;;;12.20;5.12;;;;;;;4.25;65.51;99682.75;4307117;33;35212;-95
2022/01/17 09:19:42;;;;;;;9.85;4.55;;;;;;;4.35;65.31;99682.97;4318978;33;33719;-96
2022/01/17 09:22:10;;;;;;;8.20;4.10;;;;;;;4.46;64.77;99693.50;4320294;33;34284;-94
2022/01/17 09:24:39;;;;;;;8.15;4.75;;;;;;;4.60;64.07;99698.91;4308291;33;34163;-95
2022/01/17 09:27:08;;;;;;;27.02;14.73;;;;;;;4.70;63.56;99682.78;4319872;33;34401;-94
2022/01/17 09:29:37;;;;;;;13.43;7.90;;;;;;;4.72;63.31;99672.50;4292602;33;33555;-94
2022/01/17 09:32:05;;;;;;;12.95;8.60;;;;;;;4.42;63.91;99678.81;4291340;33;33369;-94
2022/01/17 09:34:34;;;;;;;11.40;6.65;;;;;;;4.62;63.46;99676.59;4304071;33;34783;-95
2022/01/17 09:37:02;;;;;;;14.40;8.27;;;;;;;4.73;63.17;99667.38;4290511;33;34552;-95
2022/01/17 09:39:30;;;;;;;13.05;8.90;;;;;;;4.78;63.04;99653.66;4292086;33;32696;-94
2022/01/17 09:41:59;;;;;;;15.02;9.02;;;;;;;4.96;62.58;99650.53;4305286;33;33500;-96
2022/01/17 09:44:27;;;;;;;10.23;5.62;;;;;;;4.79;62.53;99643.37;4291612;33;34697;-96
2022/01/17 09:46:56;;;;;;;10.18;5.32;;;;;;;4.98;62.07;99641.09;4305005;33;34463;-94
2022/01/17 09:49:37;;;;;;;11.05;5.18;;;;;;;4.98;62.08;99628.19;4303591;33;34179;-94
2022/01/17 09:52:15;;;;;;;13.10;5.62;;;;;;;4.97;62.11;99605.84;4294432;33;33966;-95
2022/01/17 09:54:45;;;;;;;8.07;4.37;;;;;;;5.51;60.11;99595.47;4293098;33;35579;-96
2022/01/17 09:57:15;;;;;;;10.43;6.07;;;;;;;5.17;61.18;99582.91;4305126;33;35974;-95
2022/01/17 09:59:44;;;;;;;9.02;4.68;;;;;;;4.98;61.33;99577.47;4293003;33;33587;-96
2022/01/17 10:02:13;;;;;;;8.38;4.82;;;;;;;5.35;60.15;99585.78;4292636;33;33223;-96
2022/01/17 10:04:43;;;;;;;11.68;4.95;;;;;;;5.66;59.71;99581.00;4271628;33;34775;-96
2022/01/17 10:07:11;;;;;;;9.65;4.85;;;;;;;5.81;59.02;99588.97;4321873;33;33802;-96
2022/01/17 10:09:55;;;;;;;9.23;4.78;;;;;;;5.95;58.43;99568.47;4358920;28;34132;-95
2022/01/17 10:12:23;;;;;;;6.70;3.80;;;;;;;5.77;58.57;99579.44;4267228;33;33638;-96
2022/01/17 10:14:59;;;;;;;9.40;4.62;;;;;;;5.87;58.33;99573.50;4266045;33;34915;-96
2022/01/17 10:17:45;;;;;;;12.27;4.75;;;;;;;5.64;58.62;99587.88;4280497;33;35752;-96
2022/01/17 10:20:17;;;;;;;;;;;;;;;5.91;58.48;99581.31;4268908;33;34819;-96
2022/01/17 10:22:56;;;;;;;10.05;4.20;;;;;;;5.62;58.71;99572.34;4269763;33;33110;-96
2022/01/17 10:26:01;;;;;;;9.60;4.43;;;;;;;5.47;59.07;99544.63;4267248;33;33984;-96
2022/01/17 10:37:09;;;;;;;7.35;3.83;;;;;;;5.78;58.05;99547.56;4268227;33;33880;-96
2022/01/17 10:39:58;;;;;;;10.80;4.57;;;;;;;5.99;58.24;99538.38;4270524;33;34034;-96
2022/01/17 10:42:41;;;;;;;9.18;4.75;;;;;;;5.82;58.19;99539.03;4271808;33;33393;-96
2022/01/17 14:43:13;;;;;;;6.50;4.00;;;;;;;5.97;62.58;99248.88;4455541;32;427288;-94
2022/01/17 14:45:49;;;;;;;7.03;3.85;;;;;;;5.97;62.58;99248.88;4451792;32;32789;-96
2022/01/17 14:48:26;;;;;;;4.53;2.65;;;;;;;5.68;62.69;99251.22;4439829;32;32721;-95
2022/01/17 14:51:19;;;;;;;4.97;2.95;;;;;;;5.63;62.57;99250.31;4461804;26;35518;-95
2022/01/17 14:53:53;;;;;;;8.15;3.20;;;;;;;5.71;62.52;99277.06;4424469;32;33055;-96
2022/01/17 14:59:40;;;;;;;5.57;2.92;;;;;;;5.78;62.52;99268.53;4439041;32;33975;-96
2022/01/17 15:04:45;;;;;;;7.07;3.00;;;;;;;5.47;63.46;99263.13;4426056;32;33212;-96
2022/01/17 15:07:16;;;;;;;6.43;2.90;;;;;;;5.94;62.31;99260.88;4427812;32;32706;-95
2022/01/17 15:09:51;;;;;;;8.73;3.97;;;;;;;5.83;62.40;99260.81;4424873;32;34510;-96
2022/01/17 15:12:34;;;;;;;5.15;3.12;;;;;;;5.66;62.77;99252.94;4421630;32;34796;-96
2022/01/17 15:15:02;;;;;;;6.87;4.22;;;;;;;5.59;62.96;99254.59;4430993;32;34870;-95
2022/01/17 15:17:43;;;;;;;4.82;3.42;;;;;;;5.63;62.81;99258.06;4442549;32;33501;-95
2022/01/17 15:20:36;;;;;;;7.20;4.10;;;;;;;5.60;62.92;99268.38;4456348;32;33944;-96
2022/01/17 15:23:04;;;;;;;4.72;2.65;;;;;;;5.49;63.05;99266.56;4435538;32;35750;-96
2022/01/17 15:26:04;;;;;;;5.57;2.58;;;;;;;5.58;63.11;99270.09;4411050;26;34708;-96
2022/01/17 15:28:38;;;;;;;3.92;2.50;;;;;;;5.50;63.32;99293.25;4404360;32;32497;-93
2022/01/17 15:31:08;;;;;;;3.35;2.20;;;;;;;5.67;62.91;99290.84;4405219;32;34499;-93
2022/01/17 15:33:37;;;;;;;7.37;3.12;;;;;;;5.85;62.28;99285.78;4417550;32;34776;-93
2022/01/17 15:36:06;;;;;;;7.35;3.62;;;;;;;5.72;62.80;99290.84;4406392;32;33087;-93
2022/01/17 15:38:34;;;;;;;9.52;3.25;;;;;;;5.94;61.92;99291.91;4405297;32;33156;-93
2022/01/17 15:41:19;;;;;;;1.75;1.42;;;;;;;5.73;62.70;99302.94;4420747;26;32510;-97
2022/01/17 15:44:17;;;;;;;5.32;2.80;;;;;;;5.79;62.30;99300.37;4426898;32;34477;-96
2022/01/17 15:50:17;;;;;;;11.10;2.90;;;;;;;5.97;61.65;99310.91;4387730;27;33785;-96
2022/01/17 15:52:51;;;;;;;8.88;2.90;;;;;;;5.64;62.86;99321.78;4325560;33;32597;-96
2022/01/17 15:55:40;;;;;;;7.47;3.40;;;;;;;5.67;62.66;99324.41;4333296;33;34589;-95
2022/01/17 15:58:30;;;;;;;3.55;2.28;;;;;;;5.66;62.64;99326.12;4289460;33;34249;-96
2022/01/17 16:00:59;;;;;;;7.55;3.50;;;;;;;5.71;62.43;99333.91;4344929;27;33308;-96
2022/01/17 16:04:11;;;;;;;9.30;4.55;;;;;;;5.82;62.33;99340.06;4315604;33;33300;-96
2022/01/17 16:06:39;;;;;;;8.82;4.10;;;;;;;5.68;62.82;99339.03;4310364;33;36079;-96
2022/01/17 16:09:20;;;;;;;8.10;3.75;;;;;;;5.86;62.44;99334.06;4305692;28;34512;-96
2022/01/17 16:12:11;;;;;;;4.87;3.50;;;;;;;5.70;62.39;99364.06;4276479;33;32101;-96
2022/01/17 16:14:41;;;;;;;10.30;5.00;;;;;;;5.67;62.60;99360.59;4291086;33;33621;-90
2022/01/17 16:17:10;;;;;;;6.72;4.70;;;;;;;5.50;63.00;99370.75;4301982;33;34611;-91
2022/01/17 16:19:38;;;;;;;6.75;3.70;;;;;;;5.75;62.48;99366.66;4318312;33;34691;-92
2022/01/17 16:22:19;;;;;;;8.23;3.67;;;;;;;5.70;62.44;99355.44;4298394;33;33476;-96
2022/01/17 16:24:47;;;;;;;10.90;4.87;;;;;;;5.52;62.91;99350.94;4285582;33;32594;-94
2022/01/17 16:27:15;;;;;;;9.13;4.43;;;;;;;5.81;61.91;99340.03;4289409;33;35457;-92
2022/01/17 16:29:50;;;;;;;6.37;3.90;;;;;;;5.96;61.52;99362.59;4293288;33;34194;-94
2022/01/17 16:32:22;;;;;;;7.78;4.57;;;;;;;5.73;61.81;99352.87;4290216;33;32385;-94
2022/01/17 16:34:51;;;;;;;6.37;3.40;;;;;;;5.56;62.20;99345.00;4266946;33;33120;-94
2022/01/17 16:37:21;;;;;;;3.95;2.30;;;;;;;5.99;60.93;99339.34;4284212;33;35180;-95
2022/01/17 16:39:49;;;;;;;6.18;3.53;;;;;;;5.80;60.91;99357.25;4317300;33;33406;-94
2022/01/17 16:42:23;;;;;;;6.60;4.22;;;;;;;5.92;61.23;99359.06;4279025;33;32544;-93
2022/01/17 16:44:52;;;;;;;4.35;3.08;;;;;;;5.59;62.09;99354.47;4290192;33;33134;-94
2022/01/17 16:47:20;;;;;;;5.40;3.17;;;;;;;5.69;61.62;99366.63;4283980;33;35497;-95
2022/01/17 16:49:48;;;;;;;4.68;2.72;;;;;;;5.46;62.64;99364.69;4293171;33;35068;-95
2022/01/17 16:52:43;;;;;;;5.32;3.45;;;;;;;5.82;61.64;99373.66;4306888;33;33455;-96
2022/01/17 16:56:07;;;;;;;8.35;2.60;;;;;;;5.55;62.73;99373.38;4310720;33;33223;-94
2022/01/17 16:58:41;;;;;;;6.65;3.40;;;;;;;5.78;62.31;99377.03;4286889;33;35015;-95
2022/01/17 17:01:09;;;;;;;6.68;3.62;;;;;;;5.84;62.59;99382.28;4338175;27;34284;-94
2022/01/17 17:03:41;;;;;;;4.37;2.90;;;;;;;5.48;64.10;99352.63;4317757;28;33449;-96
2022/01/17 17:09:25;;;;;;;4.43;2.37;;;;;;;5.34;65.19;99403.28;4296675;33;33710;-96
2022/01/17 17:11:57;;;;;;;6.90;3.75;;;;;;;5.44;66.45;99423.19;4296133;33;34470;-96
2022/01/17 17:14:28;;;;;;;4.62;2.28;;;;;;;5.20;69.03;99464.22;4306508;33;32154;-96
2022/01/17 17:17:01;;;;;;;5.03;2.50;;;;;;;2.89;78.55;99565.66;4305355;33;34000;-93
2022/01/17 17:19:44;;;;;;;3.53;2.03;;;;;;;1.84;83.10;99586.94;4749055;27;33798;31
2022/01/17 17:22:17;;;;;;;6.25;2.65;;;;;;;1.42;87.50;99586.56;4290999;33;34453;-77
2022/01/17 17:24:53;;;;;;;3.15;2.08;;;;;;;1.01;90.20;99606.69;4304961;33;33510;-79
2022/01/17 17:27:32;;;;;;;3.55;2.47;;;;;;;1.26;91.28;99598.06;4295666;33;33894;-80
2022/01/17 17:30:06;;;;;;;6.65;1.77;;;;;;;1.28;90.63;99597.25;4277372;33;34979;-79
2022/01/17 17:32:39;;;;;;;2.05;1.23;;;;;;;1.53;89.08;99615.97;4289414;33;34092;-80
2022/01/17 17:35:33;;;;;;;1.42;1.25;;;;;;;1.57;88.85;99622.97;4290792;33;33356;-76
2022/01/17 17:38:02;;;;;;;2.08;1.58;;;;;;;1.36;89.62;99618.03;4290723;33;33995;-79
2022/01/17 17:40:33;;;;;;;1.62;1.30;;;;;;;1.65;87.66;99615.47;4290351;33;35035;-79
2022/01/17 17:43:02;;;;;;;6.68;2.30;;;;;;;1.73;87.53;99613.13;4295425;33;33559;-80
2022/01/17 17:45:34;;;;;;;4.70;1.80;;;;;;;1.73;85.88;99623.38;4304796;33;33538;-78
2022/01/17 17:48:04;;;;;;;3.22;1.75;;;;;;;1.80;86.54;99617.59;4304959;33;34783;-75
2022/01/17 17:50:32;;;;;;;4.65;1.95;;;;;;;1.86;85.41;99622.94;4304699;33;35018;-79
2022/01/17 17:53:00;;;;;;;5.03;2.42;;;;;;;2.03;85.31;99626.84;4303368;33;34394;-80
2022/01/17 17:55:29;;;;;;;5.50;1.92;;;;;;;1.89;85.24;99649.56;4304728;33;33504;-80
2022/01/17 17:57:59;;;;;;;3.42;1.70;;;;;;;1.87;85.16;99653.78;4304630;33;34292;-83
2022/01/17 18:00:29;;;;;;;2.20;1.60;;;;;;;2.13;84.41;99657.94;4295740;33;34961;-80
2022/01/17 18:02:58;;;;;;;2.22;1.35;;;;;;;2.14;82.60;99672.53;4289049;33;34364;-76
2022/01/17 18:05:26;;;;;;;2.20;1.45;;;;;;;2.62;79.51;99656.69;4290218;33;33507;-81
2022/01/17 18:07:55;;;;;;;3.00;1.70;;;;;;;2.38;80.44;99656.91;4289167;33;33939;-77
2022/01/17 18:10:23;;;;;;;1.73;1.62;;;;;;;2.40;80.71;99670.66;4290100;33;35809;-81
2022/01/17 18:12:51;;;;;;;6.28;1.80;;;;;;;2.19;81.51;99686.34;4290218;33;35006;-78
2022/01/17 18:15:19;;;;;;;2.05;1.45;;;;;;;2.21;82.25;99700.12;4301629;33;33430;-78
2022/01/17 18:17:47;;;;;;;5.22;1.52;;;;;;;2.38;82.11;99693.78;4290403;33;34715;-80
2022/01/17 18:20:16;;;;;;;2.47;1.70;;;;;;;2.17;82.86;99682.88;4304455;33;35161;-79
2022/01/17 18:22:44;;;;;;;3.97;1.80;;;;;;;2.13;82.81;99692.19;4302620;33;34403;-78
2022/01/17 18:25:13;;;;;;;1.87;1.65;;;;;;;2.64;81.01;99703.87;4291518;33;33417;-81
2022/01/17 18:27:41;;;;;;;2.87;1.33;;;;;;;2.19;82.13;99717.16;4289883;33;34128;-78
2022/01/17 18:30:10;;;;;;;2.53;1.23;;;;;;;2.19;82.62;99727.44;4279455;33;35184;-81
2022/01/17 18:32:39;;;;;;;2.12;1.73;;;;;;;2.21;82.82;99731.81;4301491;33;34490;-79
2022/01/17 18:35:08;;;;;;;8.98;2.28;;;;;;;2.34;82.49;99727.91;4303982;33;33390;-81
2022/01/17 18:37:37;;;;;;;3.15;1.77;;;;;;;2.34;81.78;99738.19;4300885;33;33913;-81
2022/01/17 18:40:18;;;;;;;1.92;1.30;;;;;;;2.08;83.47;99746.00;4290740;33;35854;-80
2022/01/17 18:42:48;;;;;;;3.85;1.60;;;;;;;2.58;81.90;99750.00;4302485;33;35152;-81
2022/01/17 18:45:17;;;;;;;2.20;1.65;;;;;;;2.23;83.31;99739.56;4290263;33;34265;-82
2022/01/17 18:47:45;;;;;;;2.08;1.50;;;;;;;2.34;83.16;99753.59;4303297;33;34124;-81
2022/01/17 18:50:13;;;;;;;1.60;1.30;;;;;;;2.26;82.80;99761.09;4276513;33;35127;-82
2022/01/17 18:52:42;;;;;;;3.67;1.90;;;;;;;2.41;81.96;99758.09;4301830;33;34911;-80
2022/01/17 18:55:11;;;;;;;3.47;1.80;;;;;;;2.19;82.92;99765.97;4303669;33;33468;-82
2022/01/17 18:57:41;;;;;;;4.28;2.30;;;;;;;2.01;83.48;99777.47;4314501;33;33858;-81
2022/01/17 19:00:10;;;;;;;6.43;2.15;;;;;;;2.22;83.35;99778.94;4302737;33;35577;-82
2022/01/17 19:02:39;;;;;;;5.72;2.53;;;;;;;2.09;82.66;99773.41;4302858;33;34746;-81
2022/01/17 19:05:09;;;;;;;8.18;3.30;;;;;;;2.40;80.79;99774.34;4290115;33;32298;-81
2022/01/17 19:07:37;;;;;;;10.70;2.97;;;;;;;2.23;81.08;99767.84;4303639;33;34741;-81
2022/01/17 19:10:05;;;;;;;4.47;2.97;;;;;;;2.35;79.95;99775.91;4302997;33;35047;-80
2022/01/17 19:12:33;;;;;;;6.75;1.98;;;;;;;1.93;81.12;99771.22;4303664;33;34474;-83
2022/01/17 19:15:02;;;;;;;6.55;2.33;;;;;;;2.19;80.79;99786.53;4302947;33;34110;-79
2022/01/17 19:20:27;;;;;;;3.85;2.60;;;;;;;1.76;82.71;99785.22;4303181;33;35797;-80
2022/01/17 19:22:57;;;;;;;5.47;3.30;;;;;;;2.03;82.06;99798.03;4310691;33;34470;-78
2022/01/17 19:25:25;;;;;;;3.10;1.75;;;;;;;1.90;81.86;99802.78;4304173;33;32714;-77
2022/01/17 19:27:54;;;;;;;4.78;1.50;;;;;;;1.84;82.61;99807.75;4303314;33;33944;-79
2022/01/17 19:30:22;;;;;;;4.07;2.37;;;;;;;1.87;82.27;99806.97;4289522;33;35916;-79
2022/01/17 19:32:51;;;;;;;2.35;1.80;;;;;;;1.54;83.01;99807.62;4292911;33;34630;-77
2022/01/17 19:35:19;;;;;;;5.45;2.45;;;;;;;1.88;81.88;99813.84;4305132;33;32925;-78
2022/01/17 19:37:49;;;;;;;3.90;2.10;;;;;;;1.89;82.03;99813.91;4305660;33;33888;-80
2022/01/17 19:40:39;;;;;;;2.67;1.60;;;;;;;1.67;82.55;99809.75;4291256;33;34930;-78
2022/01/17 19:43:08;;;;;;;5.68;2.62;;;;;;;1.54;82.72;99827.31;4279264;33;34390;-79
2022/01/17 19:45:36;;;;;;;3.60;1.58;;;;;;;1.43;83.80;99825.25;4305665;33;33312;-80
2022/01/17 19:48:04;;;;;;;7.12;1.73;;;;;;;1.55;82.45;99829.91;4303769;33;33829;-80
2022/01/17 19:50:33;;;;;;;2.45;1.58;;;;;;;1.48;83.12;99833.97;4304066;33;33921;-78
2022/01/17 19:53:01;;;;;;;6.80;1.95;;;;;;;1.62;83.00;99844.69;4304136;33;35036;-78
2022/01/17 19:55:29;;;;;;;3.95;1.60;;;;;;;1.99;80.59;99845.88;4304732;33;34242;-78
2022/01/17 19:57:57;;;;;;;1.83;1.33;;;;;;;2.01;80.38;99851.97;4292720;33;33843;-79
2022/01/17 20:00:25;;;;;;;3.25;1.85;;;;;;;1.57;82.69;99853.94;4304495;33;34572;-78
2022/01/17 20:02:58;;;;;;;4.50;1.60;;;;;;;1.54;82.18;99856.41;4314844;33;33705;-78
2022/01/17 20:05:28;;;;;;;2.78;1.92;;;;;;;1.58;81.55;99855.69;4314637;33;33295;-79
2022/01/17 20:07:56;;;;;;;8.00;2.22;;;;;;;1.59;81.58;99857.44;4305483;33;34729;-80
2022/01/17 20:10:25;;;;;;;3.00;1.95;;;;;;;1.26;82.61;99873.41;4303761;33;35881;-79
2022/01/17 20:12:53;;;;;;;6.45;2.35;;;;;;;1.46;82.11;99862.97;4315675;33;34401;-78
2022/01/17 20:15:21;;;;;;;6.78;2.30;;;;;;;1.40;81.76;99875.59;4304616;33;33403;-79
2022/01/17 20:17:49;;;;;;;3.92;1.90;;;;;;;1.30;81.89;99885.50;4305363;33;33909;-76
2022/01/17 20:20:18;;;;;;;4.35;2.10;;;;;;;1.49;81.32;99887.03;4291846;33;34882;-78
2022/01/17 20:22:46;;;;;;;4.37;2.08;;;;;;;1.41;81.91;99879.87;4292326;33;34353;-79
2022/01/17 20:25:14;;;;;;;6.53;2.58;;;;;;;1.27;81.87;99885.44;4304495;33;33496;-81
2022/01/17 20:27:44;;;;;;;5.30;1.90;;;;;;;1.40;81.63;99896.97;4304528;33;33962;-79
2022/01/17 20:30:14;;;;;;;4.40;2.25;;;;;;;1.46;81.38;99898.88;4291763;33;34201;-80
2022/01/17 20:32:42;;;;;;;8.93;2.72;;;;;;;1.41;80.46;99902.97;4304128;33;34344;-80
2022/01/17 20:35:13;;;;;;;4.18;2.08;;;;;;;1.25;80.04;99912.72;4304602;33;33341;-81
2022/01/17 20:37:42;;;;;;;8.60;2.60;;;;;;;1.25;76.01;99910.16;4305334;33;33897;-81
2022/01/17 20:40:11;;;;;;;7.60;2.72;;;;;;;1.18;74.41;99903.03;4291330;33;35844;-79
2022/01/17 20:42:46;;;;;;;3.87;1.73;;;;;;;1.24;72.83;99904.97;4305647;33;34713;-83
2022/01/17 20:45:15;;;;;;;3.78;1.33;;;;;;;1.30;70.67;99918.88;4303527;33;33526;-80
2022/01/17 20:47:43;;;;;;;1.30;1.15;;;;;;;1.35;69.70;99913.91;4305312;33;34740;-78
2022/01/17 20:50:13;;;;;;;4.25;1.90;;;;;;;1.32;68.07;99932.66;4314413;33;35006;-81
2022/01/17 20:52:41;;;;;;;1.33;1.15;;;;;;;1.21;68.71;99941.63;4292189;33;35162;-79